Terminal Aerodrome Forecast
Issued by NWS

Home | Current Version | Previous Version | Text Only | Print | Product List | Glossary On
Versions: 1 2 3 4 5 6 7 8 9 10 11 12
000
FTUS46 KSEW 180520
TAFBLI
TAF
KBLI 180520Z 1806/1906 20005KT P6SM -SHRA SCT015 BKN025
     FM180700 32012KT P6SM -SHSN BKN015
     FM180900 04020G30KT P6SM SCT015 BKN030
      TEMPO 1809/1813 3SM -SHSN BKN010 OVC030
     FM181700 04025G35KT P6SM SCT040
     FM190000 01014G23KT P6SM FEW040 SCT200=

USA.gov is the U.S. government's official web portal to all federal, state and local government web resources and services.